sensor_id;sensor_type;location;lat;lon;timestamp;P1;durP1;ratioP1;P2;durP2;ratioP2
20348;SDS011;10332;50.208;18.988;2022-11-20T00:01:31;87.70;;;43.10;;
20348;SDS011;10332;50.208;18.988;2022-11-20T00:03:59;85.27;;;41.03;;
20348;SDS011;10332;50.208;18.988;2022-11-20T00:06:27;81.67;;;40.47;;
20348;SDS011;10332;50.208;18.988;2022-11-20T00:08:57;78.90;;;40.30;;
20348;SDS011;10332;50.208;18.988;2022-11-20T00:11:27;85.57;;;43.30;;
20348;SDS011;10332;50.208;18.988;2022-11-20T00:13:57;77.60;;;39.20;;
20348;SDS011;10332;50.208;18.988;2022-11-20T00:16:27;79.07;;;40.07;;
20348;SDS011;10332;50.208;18.988;2022-11-20T00:18:58;88.33;;;45.37;;
20348;SDS011;10332;50.208;18.988;2022-11-20T00:21:26;85.43;;;43.33;;
20348;SDS011;10332;50.208;18.988;2022-11-20T00:23:55;76.40;;;39.23;;
20348;SDS011;10332;50.208;18.988;2022-11-20T00:26:24;87.43;;;44.63;;
20348;SDS011;10332;50.208;18.988;2022-11-20T00:28:54;95.33;;;47.33;;
20348;SDS011;10332;50.208;18.988;2022-11-20T00:31:25;97.60;;;48.43;;
20348;SDS011;10332;50.208;18.988;2022-11-20T00:33:53;91.83;;;45.07;;
20348;SDS011;10332;50.208;18.988;2022-11-20T00:36:21;100.03;;;48.93;;
20348;SDS011;10332;50.208;18.988;2022-11-20T00:38:52;96.70;;;48.47;;
20348;SDS011;10332;50.208;18.988;2022-11-20T00:41:22;88.07;;;46.30;;
20348;SDS011;10332;50.208;18.988;2022-11-20T00:43:51;80.97;;;43.07;;
20348;SDS011;10332;50.208;18.988;2022-11-20T00:46:21;102.73;;;51.83;;
20348;SDS011;10332;50.208;18.988;2022-11-20T00:48:52;97.70;;;49.90;;
20348;SDS011;10332;50.208;18.988;2022-11-20T00:51:20;97.77;;;49.50;;
20348;SDS011;10332;50.208;18.988;2022-11-20T00:53:52;106.43;;;53.53;;
20348;SDS011;10332;50.208;18.988;2022-11-20T00:56:23;106.53;;;51.57;;
20348;SDS011;10332;50.208;18.988;2022-11-20T00:58:50;106.73;;;51.70;;
20348;SDS011;10332;50.208;18.988;2022-11-20T01:01:21;102.43;;;52.03;;
20348;SDS011;10332;50.208;18.988;2022-11-20T01:03:52;113.03;;;54.93;;
20348;SDS011;10332;50.208;18.988;2022-11-20T01:08:57;117.57;;;56.60;;
20348;SDS011;10332;50.208;18.988;2022-11-20T01:11:29;104.87;;;51.17;;
20348;SDS011;10332;50.208;18.988;2022-11-20T01:13:59;112.13;;;54.83;;
20348;SDS011;10332;50.208;18.988;2022-11-20T01:16:30;116.53;;;55.60;;
20348;SDS011;10332;50.208;18.988;2022-11-20T01:19:03;108.17;;;53.60;;
20348;SDS011;10332;50.208;18.988;2022-11-20T01:21:35;112.67;;;53.63;;
20348;SDS011;10332;50.208;18.988;2022-11-20T01:24:06;110.70;;;53.20;;
20348;SDS011;10332;50.208;18.988;2022-11-20T01:26:38;101.00;;;50.03;;
20348;SDS011;10332;50.208;18.988;2022-11-20T01:29:29;112.20;;;55.30;;
20348;SDS011;10332;50.208;18.988;2022-11-20T01:31:55;110.13;;;52.93;;
20348;SDS011;10332;50.208;18.988;2022-11-20T01:34:22;135.17;;;61.93;;
20348;SDS011;10332;50.208;18.988;2022-11-20T01:36:50;127.43;;;62.30;;
20348;SDS011;10332;50.208;18.988;2022-11-20T01:39:23;124.10;;;57.70;;
20348;SDS011;10332;50.208;18.988;2022-11-20T01:41:53;117.77;;;56.57;;
20348;SDS011;10332;50.208;18.988;2022-11-20T01:50:23;113.43;;;54.63;;
20348;SDS011;10332;50.208;18.988;2022-11-20T01:53:00;110.97;;;51.83;;
20348;SDS011;10332;50.208;18.988;2022-11-20T01:55:36;129.43;;;61.20;;
20348;SDS011;10332;50.208;18.988;2022-11-20T01:58:10;125.40;;;58.50;;
20348;SDS011;10332;50.208;18.988;2022-11-20T02:00:40;122.07;;;57.43;;
20348;SDS011;10332;50.208;18.988;2022-11-20T02:03:09;133.20;;;60.73;;
20348;SDS011;10332;50.208;18.988;2022-11-20T02:08:26;121.30;;;60.83;;
20348;SDS011;10332;50.208;18.988;2022-11-20T02:10:55;116.43;;;56.07;;
20348;SDS011;10332;50.208;18.988;2022-11-20T02:13:23;130.73;;;60.13;;
20348;SDS011;10332;50.208;18.988;2022-11-20T02:16:31;138.67;;;63.43;;
20348;SDS011;10332;50.208;18.988;2022-11-20T02:19:10;129.43;;;62.07;;
20348;SDS011;10332;50.208;18.988;2022-11-20T02:25:03;127.70;;;61.73;;
20348;SDS011;10332;50.208;18.988;2022-11-20T02:27:34;116.60;;;55.97;;
20348;SDS011;10332;50.208;18.988;2022-11-20T02:30:05;112.83;;;53.23;;
20348;SDS011;10332;50.208;18.988;2022-11-20T02:32:35;126.70;;;59.77;;
20348;SDS011;10332;50.208;18.988;2022-11-20T02:37:47;109.73;;;55.23;;
20348;SDS011;10332;50.208;18.988;2022-11-20T02:40:19;114.63;;;54.17;;
20348;SDS011;10332;50.208;18.988;2022-11-20T02:42:46;119.43;;;56.90;;
20348;SDS011;10332;50.208;18.988;2022-11-20T02:45:14;117.17;;;57.07;;
20348;SDS011;10332;50.208;18.988;2022-11-20T02:47:41;119.97;;;58.40;;
20348;SDS011;10332;50.208;18.988;2022-11-20T02:50:09;131.07;;;60.63;;
20348;SDS011;10332;50.208;18.988;2022-11-20T02:52:37;121.67;;;59.70;;
20348;SDS011;10332;50.208;18.988;2022-11-20T02:55:04;127.13;;;61.10;;
20348;SDS011;10332;50.208;18.988;2022-11-20T02:57:32;134.23;;;62.83;;
20348;SDS011;10332;50.208;18.988;2022-11-20T03:00:00;131.50;;;60.77;;
20348;SDS011;10332;50.208;18.988;2022-11-20T03:02:31;128.63;;;60.83;;
20348;SDS011;10332;50.208;18.988;2022-11-20T03:04:59;114.30;;;56.87;;
20348;SDS011;10332;50.208;18.988;2022-11-20T03:07:26;117.33;;;55.73;;
20348;SDS011;10332;50.208;18.988;2022-11-20T03:09:54;114.57;;;55.40;;
20348;SDS011;10332;50.208;18.988;2022-11-20T03:12:21;110.10;;;54.70;;
20348;SDS011;10332;50.208;18.988;2022-11-20T03:14:48;110.40;;;53.93;;
20348;SDS011;10332;50.208;18.988;2022-11-20T03:17:19;112.60;;;54.20;;
20348;SDS011;10332;50.208;18.988;2022-11-20T03:19:46;117.27;;;54.63;;
20348;SDS011;10332;50.208;18.988;2022-11-20T03:22:14;105.23;;;52.87;;
20348;SDS011;10332;50.208;18.988;2022-11-20T03:24:41;120.10;;;56.60;;
20348;SDS011;10332;50.208;18.988;2022-11-20T03:27:08;113.50;;;55.63;;
20348;SDS011;10332;50.208;18.988;2022-11-20T03:29:36;117.10;;;57.30;;
20348;SDS011;10332;50.208;18.988;2022-11-20T03:32:03;108.30;;;54.40;;
20348;SDS011;10332;50.208;18.988;2022-11-20T03:34:31;116.73;;;56.03;;
20348;SDS011;10332;50.208;18.988;2022-11-20T03:36:59;113.27;;;56.30;;
20348;SDS011;10332;50.208;18.988;2022-11-20T03:39:26;109.47;;;52.10;;
20348;SDS011;10332;50.208;18.988;2022-11-20T03:41:53;101.03;;;49.43;;
20348;SDS011;10332;50.208;18.988;2022-11-20T03:44:21;88.93;;;44.80;;
20348;SDS011;10332;50.208;18.988;2022-11-20T03:46:49;106.53;;;52.23;;
20348;SDS011;10332;50.208;18.988;2022-11-20T03:49:16;93.73;;;46.80;;
20348;SDS011;10332;50.208;18.988;2022-11-20T03:51:43;98.40;;;48.73;;
20348;SDS011;10332;50.208;18.988;2022-11-20T03:54:10;105.73;;;52.37;;
20348;SDS011;10332;50.208;18.988;2022-11-20T03:56:38;98.40;;;47.97;;
20348;SDS011;10332;50.208;18.988;2022-11-20T03:59:05;105.73;;;50.17;;
20348;SDS011;10332;50.208;18.988;2022-11-20T04:01:34;96.87;;;49.90;;
20348;SDS011;10332;50.208;18.988;2022-11-20T04:04:04;102.67;;;51.37;;
20348;SDS011;10332;50.208;18.988;2022-11-20T04:06:36;117.90;;;58.47;;
20348;SDS011;10332;50.208;18.988;2022-11-20T04:09:04;122.50;;;57.27;;
20348;SDS011;10332;50.208;18.988;2022-11-20T04:11:34;116.93;;;55.57;;
20348;SDS011;10332;50.208;18.988;2022-11-20T04:14:06;109.50;;;53.80;;
20348;SDS011;10332;50.208;18.988;2022-11-20T04:16:40;110.13;;;52.63;;
20348;SDS011;10332;50.208;18.988;2022-11-20T04:19:11;121.37;;;58.10;;
20348;SDS011;10332;50.208;18.988;2022-11-20T04:21:42;116.53;;;56.30;;
20348;SDS011;10332;50.208;18.988;2022-11-20T04:24:10;98.63;;;48.70;;
20348;SDS011;10332;50.208;18.988;2022-11-20T04:26:38;104.30;;;52.00;;
20348;SDS011;10332;50.208;18.988;2022-11-20T04:29:09;93.60;;;47.37;;
20348;SDS011;10332;50.208;18.988;2022-11-20T04:31:38;97.47;;;47.30;;
20348;SDS011;10332;50.208;18.988;2022-11-20T04:34:06;106.33;;;52.73;;
20348;SDS011;10332;50.208;18.988;2022-11-20T04:36:34;112.43;;;51.63;;
20348;SDS011;10332;50.208;18.988;2022-11-20T04:39:03;114.93;;;57.80;;
20348;SDS011;10332;50.208;18.988;2022-11-20T04:41:34;103.43;;;51.00;;
20348;SDS011;10332;50.208;18.988;2022-11-20T04:44:04;102.37;;;50.83;;
20348;SDS011;10332;50.208;18.988;2022-11-20T04:46:33;93.27;;;48.23;;
20348;SDS011;10332;50.208;18.988;2022-11-20T04:49:05;93.30;;;47.43;;
20348;SDS011;10332;50.208;18.988;2022-11-20T04:51:33;96.67;;;48.07;;
20348;SDS011;10332;50.208;18.988;2022-11-20T04:54:01;109.30;;;53.17;;
20348;SDS011;10332;50.208;18.988;2022-11-20T04:56:29;96.93;;;50.17;;
20348;SDS011;10332;50.208;18.988;2022-11-20T04:58:59;95.13;;;47.30;;
20348;SDS011;10332;50.208;18.988;2022-11-20T05:01:28;107.40;;;52.73;;
20348;SDS011;10332;50.208;18.988;2022-11-20T05:03:56;94.03;;;46.77;;
20348;SDS011;10332;50.208;18.988;2022-11-20T05:06:24;96.07;;;48.03;;
20348;SDS011;10332;50.208;18.988;2022-11-20T05:08:52;88.27;;;45.07;;
20348;SDS011;10332;50.208;18.988;2022-11-20T05:11:20;99.83;;;52.97;;
20348;SDS011;10332;50.208;18.988;2022-11-20T05:13:48;91.57;;;48.30;;
20348;SDS011;10332;50.208;18.988;2022-11-20T05:16:19;95.23;;;50.87;;
20348;SDS011;10332;50.208;18.988;2022-11-20T05:18:51;93.97;;;50.07;;
20348;SDS011;10332;50.208;18.988;2022-11-20T05:21:21;100.33;;;50.80;;
20348;SDS011;10332;50.208;18.988;2022-11-20T05:23:49;107.07;;;55.90;;
20348;SDS011;10332;50.208;18.988;2022-11-20T05:26:17;124.70;;;63.90;;
20348;SDS011;10332;50.208;18.988;2022-11-20T05:28:49;118.10;;;59.37;;
20348;SDS011;10332;50.208;18.988;2022-11-20T05:31:19;132.17;;;66.90;;
20348;SDS011;10332;50.208;18.988;2022-11-20T05:33:54;124.13;;;58.40;;
20348;SDS011;10332;50.208;18.988;2022-11-20T05:36:24;117.57;;;57.33;;
20348;SDS011;10332;50.208;18.988;2022-11-20T05:38:51;111.40;;;54.97;;
20348;SDS011;10332;50.208;18.988;2022-11-20T05:41:26;123.50;;;58.03;;
20348;SDS011;10332;50.208;18.988;2022-11-20T05:43:55;112.43;;;53.60;;
20348;SDS011;10332;50.208;18.988;2022-11-20T05:46:24;115.60;;;54.97;;
20348;SDS011;10332;50.208;18.988;2022-11-20T05:48:55;116.93;;;56.47;;
20348;SDS011;10332;50.208;18.988;2022-11-20T05:51:24;112.77;;;54.10;;
20348;SDS011;10332;50.208;18.988;2022-11-20T05:53:52;120.03;;;57.20;;
20348;SDS011;10332;50.208;18.988;2022-11-20T05:56:20;105.77;;;52.00;;
20348;SDS011;10332;50.208;18.988;2022-11-20T05:58:49;99.00;;;52.07;;
20348;SDS011;10332;50.208;18.988;2022-11-20T06:01:21;108.30;;;52.80;;
20348;SDS011;10332;50.208;18.988;2022-11-20T06:03:51;100.17;;;49.10;;
20348;SDS011;10332;50.208;18.988;2022-11-20T06:06:21;108.43;;;53.67;;
20348;SDS011;10332;50.208;18.988;2022-11-20T06:08:49;113.00;;;55.77;;
20348;SDS011;10332;50.208;18.988;2022-11-20T06:11:17;105.47;;;51.50;;
20348;SDS011;10332;50.208;18.988;2022-11-20T06:13:45;99.53;;;50.17;;
20348;SDS011;10332;50.208;18.988;2022-11-20T06:16:14;106.17;;;52.47;;
20348;SDS011;10332;50.208;18.988;2022-11-20T06:18:45;97.43;;;49.50;;
20348;SDS011;10332;50.208;18.988;2022-11-20T06:21:17;105.07;;;52.83;;
20348;SDS011;10332;50.208;18.988;2022-11-20T06:23:48;105.77;;;53.27;;
20348;SDS011;10332;50.208;18.988;2022-11-20T06:26:18;112.27;;;52.13;;
20348;SDS011;10332;50.208;18.988;2022-11-20T06:28:51;108.33;;;53.33;;
20348;SDS011;10332;50.208;18.988;2022-11-20T06:31:20;105.30;;;52.53;;
20348;SDS011;10332;50.208;18.988;2022-11-20T06:33:51;102.00;;;52.03;;
20348;SDS011;10332;50.208;18.988;2022-11-20T06:36:20;105.23;;;52.83;;
20348;SDS011;10332;50.208;18.988;2022-11-20T06:38:49;117.50;;;57.83;;
20348;SDS011;10332;50.208;18.988;2022-11-20T06:41:20;115.53;;;57.10;;
20348;SDS011;10332;50.208;18.988;2022-11-20T06:43:49;104.60;;;52.70;;
20348;SDS011;10332;50.208;18.988;2022-11-20T06:46:17;105.83;;;54.27;;
20348;SDS011;10332;50.208;18.988;2022-11-20T06:48:47;113.87;;;54.73;;
20348;SDS011;10332;50.208;18.988;2022-11-20T06:51:15;98.83;;;50.10;;
20348;SDS011;10332;50.208;18.988;2022-11-20T06:53:43;114.50;;;53.97;;
20348;SDS011;10332;50.208;18.988;2022-11-20T06:56:11;116.77;;;57.53;;
20348;SDS011;10332;50.208;18.988;2022-11-20T06:58:38;103.33;;;51.73;;
20348;SDS011;10332;50.208;18.988;2022-11-20T07:01:06;113.63;;;55.13;;
20348;SDS011;10332;50.208;18.988;2022-11-20T07:03:37;112.57;;;55.00;;
20348;SDS011;10332;50.208;18.988;2022-11-20T07:06:07;108.10;;;55.43;;
20348;SDS011;10332;50.208;18.988;2022-11-20T07:08:35;103.80;;;52.33;;
20348;SDS011;10332;50.208;18.988;2022-11-20T07:11:04;93.63;;;49.07;;
20348;SDS011;10332;50.208;18.988;2022-11-20T07:13:34;109.53;;;55.80;;
20348;SDS011;10332;50.208;18.988;2022-11-20T07:16:02;110.23;;;54.67;;
20348;SDS011;10332;50.208;18.988;2022-11-20T07:18:32;110.53;;;55.87;;
20348;SDS011;10332;50.208;18.988;2022-11-20T07:21:07;120.53;;;58.63;;
20348;SDS011;10332;50.208;18.988;2022-11-20T07:23:37;109.73;;;54.93;;
20348;SDS011;10332;50.208;18.988;2022-11-20T07:26:05;105.23;;;52.97;;
20348;SDS011;10332;50.208;18.988;2022-11-20T07:28:35;111.03;;;56.07;;
20348;SDS011;10332;50.208;18.988;2022-11-20T07:31:04;107.63;;;55.50;;
20348;SDS011;10332;50.208;18.988;2022-11-20T07:33:33;120.57;;;61.57;;
20348;SDS011;10332;50.208;18.988;2022-11-20T07:36:01;123.47;;;62.80;;
20348;SDS011;10332;50.208;18.988;2022-11-20T07:38:29;132.23;;;64.63;;
20348;SDS011;10332;50.208;18.988;2022-11-20T07:40:57;123.63;;;63.20;;
20348;SDS011;10332;50.208;18.988;2022-11-20T07:43:24;120.00;;;63.30;;
20348;SDS011;10332;50.208;18.988;2022-11-20T07:45:54;131.47;;;63.53;;
20348;SDS011;10332;50.208;18.988;2022-11-20T07:48:23;131.67;;;66.10;;
20348;SDS011;10332;50.208;18.988;2022-11-20T07:50:55;131.57;;;69.33;;
20348;SDS011;10332;50.208;18.988;2022-11-20T07:53:23;136.60;;;70.73;;
20348;SDS011;10332;50.208;18.988;2022-11-20T07:55:51;122.87;;;66.17;;
20348;SDS011;10332;50.208;18.988;2022-11-20T07:58:19;127.67;;;68.23;;
20348;SDS011;10332;50.208;18.988;2022-11-20T08:00:48;125.83;;;67.00;;
20348;SDS011;10332;50.208;18.988;2022-11-20T08:03:15;134.57;;;69.37;;
20348;SDS011;10332;50.208;18.988;2022-11-20T08:05:50;124.83;;;64.57;;
20348;SDS011;10332;50.208;18.988;2022-11-20T08:08:18;116.57;;;61.80;;
20348;SDS011;10332;50.208;18.988;2022-11-20T08:10:45;111.83;;;60.77;;
20348;SDS011;10332;50.208;18.988;2022-11-20T08:13:12;111.77;;;61.33;;
20348;SDS011;10332;50.208;18.988;2022-11-20T08:15:58;111.87;;;58.40;;
20348;SDS011;10332;50.208;18.988;2022-11-20T08:18:25;109.37;;;59.67;;
20348;SDS011;10332;50.208;18.988;2022-11-20T08:21:01;106.17;;;59.07;;
20348;SDS011;10332;50.208;18.988;2022-11-20T08:23:30;102.20;;;57.07;;
20348;SDS011;10332;50.208;18.988;2022-11-20T08:25:58;108.43;;;60.97;;
20348;SDS011;10332;50.208;18.988;2022-11-20T08:28:25;119.80;;;62.73;;
20348;SDS011;10332;50.208;18.988;2022-11-20T08:30:57;116.67;;;63.03;;
20348;SDS011;10332;50.208;18.988;2022-11-20T08:33:28;119.07;;;62.80;;
20348;SDS011;10332;50.208;18.988;2022-11-20T08:36:00;114.67;;;61.60;;
20348;SDS011;10332;50.208;18.988;2022-11-20T08:38:30;121.43;;;61.13;;
20348;SDS011;10332;50.208;18.988;2022-11-20T08:40:59;116.50;;;62.67;;
20348;SDS011;10332;50.208;18.988;2022-11-20T08:43:51;117.87;;;61.13;;
20348;SDS011;10332;50.208;18.988;2022-11-20T08:46:21;109.60;;;60.03;;
20348;SDS011;10332;50.208;18.988;2022-11-20T08:48:51;110.77;;;58.13;;
20348;SDS011;10332;50.208;18.988;2022-11-20T08:51:19;120.17;;;63.03;;
20348;SDS011;10332;50.208;18.988;2022-11-20T08:53:47;122.50;;;62.93;;
20348;SDS011;10332;50.208;18.988;2022-11-20T08:56:17;109.37;;;59.70;;
20348;SDS011;10332;50.208;18.988;2022-11-20T08:58:45;108.03;;;59.00;;
20348;SDS011;10332;50.208;18.988;2022-11-20T09:01:32;106.90;;;55.53;;
20348;SDS011;10332;50.208;18.988;2022-11-20T09:03:59;109.33;;;57.03;;
20348;SDS011;10332;50.208;18.988;2022-11-20T09:06:27;109.57;;;57.73;;
20348;SDS011;10332;50.208;18.988;2022-11-20T09:08:54;109.23;;;56.97;;
20348;SDS011;10332;50.208;18.988;2022-11-20T09:11:29;109.07;;;57.85;;
20348;SDS011;10332;50.208;18.988;2022-11-20T09:13:56;96.28;;;52.47;;
20348;SDS011;10332;50.208;18.988;2022-11-20T09:16:24;102.33;;;53.40;;
20348;SDS011;10332;50.208;18.988;2022-11-20T09:18:51;98.50;;;53.47;;
20348;SDS011;10332;50.208;18.988;2022-11-20T09:21:39;94.57;;;50.70;;
20348;SDS011;10332;50.208;18.988;2022-11-20T09:24:06;94.90;;;50.27;;
20348;SDS011;10332;50.208;18.988;2022-11-20T09:26:34;95.17;;;50.37;;
20348;SDS011;10332;50.208;18.988;2022-11-20T09:29:02;100.47;;;52.28;;
20348;SDS011;10332;50.208;18.988;2022-11-20T09:31:29;97.63;;;51.38;;
20348;SDS011;10332;50.208;18.988;2022-11-20T09:33:56;98.32;;;50.17;;
20348;SDS011;10332;50.208;18.988;2022-11-20T09:36:24;95.83;;;50.37;;
20348;SDS011;10332;50.208;18.988;2022-11-20T09:38:51;92.10;;;49.23;;
20348;SDS011;10332;50.208;18.988;2022-11-20T09:47:05;87.53;;;44.38;;
20348;SDS011;10332;50.208;18.988;2022-11-20T09:56:46;95.88;;;49.00;;
20348;SDS011;10332;50.208;18.988;2022-11-20T10:02:16;91.10;;;48.40;;
20348;SDS011;10332;50.208;18.988;2022-11-20T10:05:05;104.32;;;51.65;;
20348;SDS011;10332;50.208;18.988;2022-11-20T10:08:28;101.80;;;53.03;;
20348;SDS011;10332;50.208;18.988;2022-11-20T10:10:58;98.18;;;52.05;;
20348;SDS011;10332;50.208;18.988;2022-11-20T10:17:02;94.53;;;51.80;;
20348;SDS011;10332;50.208;18.988;2022-11-20T10:25:55;88.00;;;47.07;;
20348;SDS011;10332;50.208;18.988;2022-11-20T10:34:01;82.68;;;46.67;;
20348;SDS011;10332;50.208;18.988;2022-11-20T10:36:56;76.63;;;44.00;;
20348;SDS011;10332;50.208;18.988;2022-11-20T10:47:54;76.70;;;44.97;;
20348;SDS011;10332;50.208;18.988;2022-11-20T10:50:40;71.45;;;40.97;;
20348;SDS011;10332;50.208;18.988;2022-11-20T11:01:58;78.55;;;46.38;;
20348;SDS011;10332;50.208;18.988;2022-11-20T11:04:42;80.55;;;45.65;;
20348;SDS011;10332;50.208;18.988;2022-11-20T11:07:22;75.25;;;44.55;;
20348;SDS011;10332;50.208;18.988;2022-11-20T11:09:57;73.60;;;43.33;;
20348;SDS011;10332;50.208;18.988;2022-11-20T11:12:25;68.57;;;41.67;;
20348;SDS011;10332;50.208;18.988;2022-11-20T11:14:56;66.15;;;41.75;;
20348;SDS011;10332;50.208;18.988;2022-11-20T11:22:51;59.15;;;40.72;;
20348;SDS011;10332;50.208;18.988;2022-11-20T11:25:29;63.10;;;43.88;;
20348;SDS011;10332;50.208;18.988;2022-11-20T11:28:01;61.78;;;42.05;;
20348;SDS011;10332;50.208;18.988;2022-11-20T11:30:41;63.33;;;42.08;;
20348;SDS011;10332;50.208;18.988;2022-11-20T11:33:24;62.58;;;44.25;;
20348;SDS011;10332;50.208;18.988;2022-11-20T11:36:00;62.55;;;42.03;;
20348;SDS011;10332;50.208;18.988;2022-11-20T11:38:42;70.70;;;46.38;;
20348;SDS011;10332;50.208;18.988;2022-11-20T11:41:20;67.03;;;46.65;;
20348;SDS011;10332;50.208;18.988;2022-11-20T11:43:55;67.20;;;45.90;;
20348;SDS011;10332;50.208;18.988;2022-11-20T11:47:02;71.90;;;47.78;;
20348;SDS011;10332;50.208;18.988;2022-11-20T11:49:36;73.28;;;48.55;;
20348;SDS011;10332;50.208;18.988;2022-11-20T11:52:14;74.93;;;47.20;;
20348;SDS011;10332;50.208;18.988;2022-11-20T11:54:56;72.93;;;49.17;;
20348;SDS011;10332;50.208;18.988;2022-11-20T11:57:47;67.88;;;45.63;;
20348;SDS011;10332;50.208;18.988;2022-11-20T12:00:27;72.15;;;46.42;;
20348;SDS011;10332;50.208;18.988;2022-11-20T12:03:02;73.30;;;47.25;;
20348;SDS011;10332;50.208;18.988;2022-11-20T12:05:55;72.55;;;47.38;;
20348;SDS011;10332;50.208;18.988;2022-11-20T12:16:25;71.07;;;44.53;;
20348;SDS011;10332;50.208;18.988;2022-11-20T12:18:52;68.13;;;43.95;;
20348;SDS011;10332;50.208;18.988;2022-11-20T12:27:04;65.93;;;42.03;;
20348;SDS011;10332;50.208;18.988;2022-11-20T12:30:19;68.55;;;42.03;;
20348;SDS011;10332;50.208;18.988;2022-11-20T12:33:12;69.55;;;42.83;;
20348;SDS011;10332;50.208;18.988;2022-11-20T12:36:11;61.75;;;40.15;;
20348;SDS011;10332;50.208;18.988;2022-11-20T12:39:02;58.80;;;38.85;;
20348;SDS011;10332;50.208;18.988;2022-11-20T13:03:00;57.53;;;42.75;;
20348;SDS011;10332;50.208;18.988;2022-11-20T13:06:16;59.38;;;42.47;;
20348;SDS011;10332;50.208;18.988;2022-11-20T13:08:51;56.85;;;42.20;;
20348;SDS011;10332;50.208;18.988;2022-11-20T13:11:34;60.08;;;43.13;;
20348;SDS011;10332;50.208;18.988;2022-11-20T13:17:13;61.53;;;43.78;;
20348;SDS011;10332;50.208;18.988;2022-11-20T13:19:55;57.35;;;41.05;;
20348;SDS011;10332;50.208;18.988;2022-11-20T13:22:28;63.15;;;43.92;;
20348;SDS011;10332;50.208;18.988;2022-11-20T13:25:34;63.30;;;44.63;;
20348;SDS011;10332;50.208;18.988;2022-11-20T13:28:26;59.63;;;41.55;;
20348;SDS011;10332;50.208;18.988;2022-11-20T13:30:57;64.63;;;44.53;;
20348;SDS011;10332;50.208;18.988;2022-11-20T13:33:29;63.05;;;43.42;;
20348;SDS011;10332;50.208;18.988;2022-11-20T13:36:05;71.05;;;47.10;;
20348;SDS011;10332;50.208;18.988;2022-11-20T13:38:50;68.25;;;46.65;;
20348;SDS011;10332;50.208;18.988;2022-11-20T13:41:24;71.00;;;45.97;;
20348;SDS011;10332;50.208;18.988;2022-11-20T13:44:06;77.35;;;48.42;;
20348;SDS011;10332;50.208;18.988;2022-11-20T13:46:37;79.63;;;49.83;;
20348;SDS011;10332;50.208;18.988;2022-11-20T13:55:23;75.03;;;47.80;;
20348;SDS011;10332;50.208;18.988;2022-11-20T13:58:27;95.43;;;56.28;;
20348;SDS011;10332;50.208;18.988;2022-11-20T14:01:17;83.95;;;50.60;;
20348;SDS011;10332;50.208;18.988;2022-11-20T14:03:49;98.47;;;56.28;;
20348;SDS011;10332;50.208;18.988;2022-11-20T14:06:39;92.18;;;52.00;;
20348;SDS011;10332;50.208;18.988;2022-11-20T14:09:24;90.30;;;53.90;;
20348;SDS011;10332;50.208;18.988;2022-11-20T14:11:53;82.25;;;49.30;;
20348;SDS011;10332;50.208;18.988;2022-11-20T14:14:22;81.07;;;45.25;;
20348;SDS011;10332;50.208;18.988;2022-11-20T14:17:35;81.22;;;49.95;;
20348;SDS011;10332;50.208;18.988;2022-11-20T14:19:47;81.78;;;48.97;;
20348;SDS011;10332;50.208;18.988;2022-11-20T14:25:18;82.15;;;48.58;;
20348;SDS011;10332;50.208;18.988;2022-11-20T14:27:59;95.03;;;54.75;;
20348;SDS011;10332;50.208;18.988;2022-11-20T14:30:37;89.70;;;53.40;;
20348;SDS011;10332;50.208;18.988;2022-11-20T14:33:13;97.18;;;54.53;;
20348;SDS011;10332;50.208;18.988;2022-11-20T14:35:49;93.47;;;52.83;;
20348;SDS011;10332;50.208;18.988;2022-11-20T14:38:25;92.25;;;52.90;;
20348;SDS011;10332;50.208;18.988;2022-11-20T14:41:07;94.43;;;52.95;;
20348;SDS011;10332;50.208;18.988;2022-11-20T14:43:49;92.43;;;52.60;;
20348;SDS011;10332;50.208;18.988;2022-11-20T14:46:25;84.93;;;46.78;;
20348;SDS011;10332;50.208;18.988;2022-11-20T14:48:55;71.70;;;41.70;;
20348;SDS011;10332;50.208;18.988;2022-11-20T14:51:36;87.30;;;49.30;;
20348;SDS011;10332;50.208;18.988;2022-11-20T14:54:19;80.68;;;46.33;;
20348;SDS011;10332;50.208;18.988;2022-11-20T14:56:55;85.40;;;49.83;;
20348;SDS011;10332;50.208;18.988;2022-11-20T14:59:25;87.60;;;48.20;;
20348;SDS011;10332;50.208;18.988;2022-11-20T15:02:04;93.78;;;51.00;;
20348;SDS011;10332;50.208;18.988;2022-11-20T15:04:50;82.13;;;45.65;;
20348;SDS011;10332;50.208;18.988;2022-11-20T15:07:27;94.72;;;51.35;;
20348;SDS011;10332;50.208;18.988;2022-11-20T15:10:07;88.35;;;49.50;;
20348;SDS011;10332;50.208;18.988;2022-11-20T15:13:02;86.32;;;48.05;;
20348;SDS011;10332;50.208;18.988;2022-11-20T15:15:41;90.65;;;51.10;;
20348;SDS011;10332;50.208;18.988;2022-11-20T15:21:01;91.40;;;50.25;;
20348;SDS011;10332;50.208;18.988;2022-11-20T15:23:32;106.07;;;55.17;;
20348;SDS011;10332;50.208;18.988;2022-11-20T15:26:00;104.53;;;56.13;;
20348;SDS011;10332;50.208;18.988;2022-11-20T15:28:47;108.82;;;58.15;;
20348;SDS011;10332;50.208;18.988;2022-11-20T15:31:18;111.50;;;55.92;;
20348;SDS011;10332;50.208;18.988;2022-11-20T15:33:50;112.15;;;58.80;;
20348;SDS011;10332;50.208;18.988;2022-11-20T15:36:17;105.15;;;56.65;;
20348;SDS011;10332;50.208;18.988;2022-11-20T15:38:45;119.25;;;59.20;;
20348;SDS011;10332;50.208;18.988;2022-11-20T15:41:12;109.53;;;56.03;;
20348;SDS011;10332;50.208;18.988;2022-11-20T15:43:42;116.78;;;57.05;;
20348;SDS011;10332;50.208;18.988;2022-11-20T15:46:14;118.85;;;57.90;;
20348;SDS011;10332;50.208;18.988;2022-11-20T15:48:50;119.10;;;58.38;;
20348;SDS011;10332;50.208;18.988;2022-11-20T15:51:24;119.95;;;60.47;;
20348;SDS011;10332;50.208;18.988;2022-11-20T15:54:13;126.30;;;60.45;;
20348;SDS011;10332;50.208;18.988;2022-11-20T15:56:48;128.63;;;64.38;;
20348;SDS011;10332;50.208;18.988;2022-11-20T15:59:19;128.43;;;62.28;;
20348;SDS011;10332;50.208;18.988;2022-11-20T16:01:46;128.48;;;64.82;;
20348;SDS011;10332;50.208;18.988;2022-11-20T16:04:15;124.30;;;64.00;;
20348;SDS011;10332;50.208;18.988;2022-11-20T16:06:44;125.07;;;61.60;;
20348;SDS011;10332;50.208;18.988;2022-11-20T16:09:12;127.85;;;65.75;;
20348;SDS011;10332;50.208;18.988;2022-11-20T16:11:39;119.25;;;62.15;;
20348;SDS011;10332;50.208;18.988;2022-11-20T16:14:08;121.53;;;60.50;;
20348;SDS011;10332;50.208;18.988;2022-11-20T16:16:55;117.88;;;58.63;;
20348;SDS011;10332;50.208;18.988;2022-11-20T16:19:23;121.85;;;60.38;;
20348;SDS011;10332;50.208;18.988;2022-11-20T16:21:50;122.10;;;60.60;;
20348;SDS011;10332;50.208;18.988;2022-11-20T16:24:18;120.07;;;61.10;;
20348;SDS011;10332;50.208;18.988;2022-11-20T16:26:46;124.07;;;63.03;;
20348;SDS011;10332;50.208;18.988;2022-11-20T16:29:13;119.85;;;61.90;;
20348;SDS011;10332;50.208;18.988;2022-11-20T16:31:41;125.55;;;64.95;;
20348;SDS011;10332;50.208;18.988;2022-11-20T16:34:08;129.88;;;66.53;;